createdAt,value
2022-10-17T00:03:25.917Z,95.90
2022-10-17T00:07:07.764Z,95.90
2022-10-17T00:10:58.608Z,95.80
2022-10-17T00:14:40.427Z,95.70
2022-10-17T00:18:22.437Z,95.90
2022-10-17T00:22:04.276Z,96.00
2022-10-17T00:25:46.130Z,96.10
2022-10-17T00:29:27.978Z,96.20
2022-10-17T00:33:09.887Z,96.20
2022-10-17T00:36:51.828Z,96.30
2022-10-17T00:40:33.739Z,96.30
2022-10-17T00:44:30.952Z,96.30
2022-10-17T00:48:14.342Z,96.10
2022-10-17T00:52:03.038Z,96.50
2022-10-17T00:55:52.914Z,96.40
2022-10-17T00:59:37.610Z,96.40
2022-10-17T01:03:19.607Z,96.60
2022-10-17T01:07:01.395Z,96.60
2022-10-17T01:10:52.763Z,96.70
2022-10-17T01:14:46.528Z,96.70
2022-10-17T01:18:37.131Z,96.90
2022-10-17T01:22:38.005Z,96.90
2022-10-17T01:26:31.035Z,96.70
2022-10-17T01:30:43.924Z,96.90
2022-10-17T01:34:40.895Z,96.70
2022-10-17T01:38:30.590Z,96.90
2022-10-17T01:42:18.215Z,97.00
2022-10-17T01:46:21.947Z,97.00
2022-10-17T01:50:19.763Z,96.80
2022-10-17T01:54:04.756Z,96.70
2022-10-17T01:57:51.031Z,96.90
2022-10-17T02:01:35.161Z,96.80
2022-10-17T02:05:20.392Z,96.80
2022-10-17T02:09:14.642Z,96.70
2022-10-17T02:13:27.902Z,96.70
2022-10-17T02:17:33.522Z,96.50
2022-10-17T02:21:24.213Z,96.60
2022-10-17T02:25:51.167Z,96.60
2022-10-17T02:29:46.482Z,96.40
2022-10-17T02:33:35.334Z,96.50
2022-10-17T02:37:25.418Z,96.60
2022-10-17T02:41:11.107Z,96.50
2022-10-17T02:44:55.107Z,96.40
2022-10-17T02:48:47.238Z,96.40
2022-10-17T02:52:37.384Z,96.20
2022-10-17T02:56:21.409Z,96.20
2022-10-17T03:00:06.733Z,96.20
2022-10-17T03:03:48.626Z,96.10
2022-10-17T03:07:30.428Z,96.10
2022-10-17T03:11:12.254Z,96.00
2022-10-17T03:14:54.073Z,95.90
2022-10-17T03:18:35.879Z,95.90
2022-10-17T03:22:17.762Z,95.90
2022-10-17T03:26:04.840Z,95.90
2022-10-17T03:29:46.672Z,95.50
2022-10-17T03:33:28.507Z,95.20
2022-10-17T03:37:10.329Z,95.00
2022-10-17T03:40:56.137Z,94.80
2022-10-17T03:44:37.995Z,95.00
2022-10-17T03:48:19.926Z,94.60
2022-10-17T03:52:02.026Z,94.60
2022-10-17T03:55:43.994Z,94.60
2022-10-17T03:59:25.808Z,94.70
2022-10-17T04:03:07.712Z,94.80
2022-10-17T04:06:49.572Z,94.80
2022-10-17T04:10:31.371Z,94.80
2022-10-17T04:14:13.591Z,95.10
2022-10-17T04:17:55.512Z,94.90
2022-10-17T04:21:37.894Z,95.00
2022-10-17T04:25:20.024Z,95.00
2022-10-17T04:29:01.834Z,95.00
2022-10-17T04:32:43.750Z,95.10
2022-10-17T04:36:25.627Z,95.20
2022-10-17T04:40:08.192Z,95.30
2022-10-17T04:43:51.350Z,95.50
2022-10-17T04:47:33.420Z,95.50
2022-10-17T04:51:20.567Z,95.70
2022-10-17T04:55:06.466Z,95.70
2022-10-17T04:58:48.609Z,95.70
2022-10-17T05:02:30.826Z,95.70
2022-10-17T05:06:18.519Z,95.70
2022-10-17T05:10:00.376Z,95.60
2022-10-17T05:13:42.167Z,95.50
2022-10-17T05:17:24.770Z,95.40
2022-10-17T05:21:06.803Z,95.30
2022-10-17T05:24:48.599Z,95.30
2022-10-17T05:28:30.416Z,95.30
2022-10-17T05:32:12.308Z,95.20
2022-10-17T05:35:54.127Z,95.20
2022-10-17T05:39:35.981Z,95.10
2022-10-17T05:43:18.267Z,95.10
2022-10-17T05:47:00.042Z,95.10
2022-10-17T05:50:41.966Z,95.00
2022-10-17T05:54:24.087Z,95.00
2022-10-17T05:58:06.067Z,95.00
2022-10-17T06:01:48.133Z,95.00
2022-10-17T06:05:30.027Z,94.90
2022-10-17T06:09:11.947Z,94.90
2022-10-17T06:12:53.844Z,94.90
2022-10-17T06:16:35.716Z,95.00
2022-10-17T06:20:17.619Z,95.00
2022-10-17T06:23:59.458Z,95.10
2022-10-17T06:27:41.309Z,95.20
2022-10-17T06:31:23.145Z,95.20
2022-10-17T06:35:05.374Z,95.30
2022-10-17T06:38:47.349Z,95.30
2022-10-17T06:42:29.351Z,95.30
2022-10-17T06:46:11.240Z,95.40
2022-10-17T06:49:53.135Z,95.40
2022-10-17T06:53:35.846Z,95.50
2022-10-17T06:57:17.949Z,95.50
2022-10-17T07:01:01.385Z,95.50
2022-10-17T07:04:45.734Z,95.50
2022-10-17T07:08:28.278Z,95.50
2022-10-17T07:12:12.216Z,95.40
2022-10-17T07:19:40.366Z,95.40
2022-10-17T07:23:23.084Z,95.50
2022-10-17T07:27:04.947Z,95.50
2022-10-17T07:34:20.679Z,95.20
2022-10-17T07:38:02.469Z,95.50
2022-10-17T07:41:44.302Z,95.50
2022-10-17T07:45:27.718Z,95.50
2022-10-17T07:49:09.539Z,95.50
2022-10-17T07:52:51.419Z,95.50
2022-10-17T07:56:33.472Z,95.50
2022-10-17T08:00:15.720Z,95.30
2022-10-17T08:03:57.559Z,95.40
2022-10-17T08:07:40.407Z,95.30
2022-10-17T08:11:23.545Z,95.20
2022-10-17T08:15:07.160Z,95.30
2022-10-17T08:18:48.978Z,95.20
2022-10-17T08:22:31.483Z,95.10
2022-10-17T08:26:16.879Z,95.00
2022-10-17T08:29:58.717Z,94.90
2022-10-17T08:33:41.452Z,94.70
2022-10-17T08:37:23.775Z,94.30
2022-10-17T08:41:20.326Z,94.80
2022-10-17T08:45:07.985Z,94.50
2022-10-17T08:48:51.786Z,94.10
2022-10-17T08:52:46.395Z,93.90
2022-10-17T08:56:47.885Z,93.70
2022-10-17T09:00:32.100Z,93.30
2022-10-17T09:04:33.202Z,92.60
2022-10-17T09:08:29.621Z,92.00
2022-10-17T09:12:41.425Z,90.90
2022-10-17T09:16:30.986Z,90.70
2022-10-17T09:20:18.176Z,90.30
2022-10-17T09:24:09.491Z,87.30
2022-10-17T09:28:10.913Z,86.20
2022-10-17T09:32:03.800Z,85.10
2022-10-17T09:35:47.451Z,82.50
2022-10-17T09:39:32.402Z,82.50
2022-10-17T09:43:15.434Z,79.00
2022-10-17T09:47:15.627Z,75.90
2022-10-17T09:51:08.317Z,75.20
2022-10-17T09:55:07.328Z,69.60
2022-10-17T09:58:55.477Z,63.20
2022-10-17T10:02:40.872Z,62.40
2022-10-17T10:06:22.682Z,59.60
2022-10-17T10:10:08.263Z,56.10
2022-10-17T10:13:51.158Z,54.20
2022-10-17T10:17:41.911Z,53.80
2022-10-17T10:21:26.507Z,52.00
2022-10-17T10:25:11.307Z,51.90
2022-10-17T10:29:02.854Z,51.90
2022-10-17T10:32:47.582Z,53.70
2022-10-17T10:36:53.860Z,49.60
2022-10-17T10:40:44.760Z,55.20
2022-10-17T10:44:29.577Z,50.90
2022-10-17T10:48:24.547Z,51.20
2022-10-17T10:52:10.381Z,52.40
2022-10-17T10:55:56.883Z,49.10
2022-10-17T10:59:41.220Z,49.20
2022-10-17T11:07:52.452Z,53.40
2022-10-17T11:11:43.702Z,53.80
2022-10-17T11:15:50.683Z,50.00
2022-10-17T11:19:45.168Z,47.50
2022-10-17T11:23:46.738Z,47.60
2022-10-17T11:27:30.284Z,49.70
2022-10-17T11:31:17.829Z,44.20
2022-10-17T11:35:20.956Z,42.20
2022-10-17T11:39:09.510Z,46.20
2022-10-17T11:43:20.355Z,40.20
2022-10-17T11:47:07.950Z,46.50
2022-10-17T11:55:28.113Z,43.20
2022-10-17T11:59:38.904Z,40.90
2022-10-17T12:03:39.490Z,42.80
2022-10-17T12:07:54.579Z,46.90
2022-10-17T12:12:02.617Z,46.40
2022-10-17T12:15:46.621Z,51.60
2022-10-17T12:19:32.607Z,41.00
2022-10-17T12:23:14.384Z,41.30
2022-10-17T12:26:57.129Z,39.80
2022-10-17T12:30:54.651Z,39.30
2022-10-17T12:34:37.317Z,41.40
2022-10-17T12:38:22.986Z,36.40
2022-10-17T12:42:24.811Z,35.80
2022-10-17T12:46:09.075Z,35.80
2022-10-17T12:49:55.735Z,36.00
2022-10-17T12:54:02.372Z,36.00
2022-10-17T12:58:00.115Z,38.10
2022-10-17T13:01:46.463Z,35.50
2022-10-17T13:05:34.856Z,37.60
2022-10-17T13:09:37.660Z,40.30
2022-10-17T13:13:21.262Z,43.40
2022-10-17T13:17:06.285Z,41.80
2022-10-17T13:21:15.540Z,41.60
2022-10-17T13:25:20.121Z,42.10
2022-10-17T13:32:57.425Z,40.30
2022-10-17T13:36:39.330Z,39.30
2022-10-17T13:44:32.880Z,40.00
2022-10-17T13:48:27.202Z,38.60
2022-10-17T13:52:21.903Z,41.10
2022-10-17T13:56:27.894Z,41.20
2022-10-17T14:00:21.882Z,40.90
2022-10-17T14:04:19.416Z,44.10
2022-10-17T14:08:13.449Z,45.10
2022-10-17T14:12:01.090Z,46.10
2022-10-17T14:15:45.923Z,47.40
2022-10-17T14:19:32.855Z,47.30
2022-10-17T14:23:42.959Z,45.90
2022-10-17T14:27:30.431Z,50.10
2022-10-17T14:31:25.572Z,47.10
2022-10-17T14:35:37.392Z,47.10
2022-10-17T14:39:28.335Z,45.70
2022-10-17T14:43:22.690Z,46.90
2022-10-17T14:47:30.878Z,47.00
2022-10-17T14:51:15.409Z,47.40
2022-10-17T14:54:58.694Z,47.10
2022-10-17T14:58:40.496Z,48.40
2022-10-17T15:02:27.297Z,48.10
2022-10-17T15:06:19.938Z,47.80
2022-10-17T15:10:01.738Z,47.50
2022-10-17T15:13:45.675Z,48.00
2022-10-17T15:17:31.016Z,48.70
2022-10-17T15:21:26.451Z,47.40
2022-10-17T15:25:15.753Z,48.30
2022-10-17T15:28:57.844Z,48.90
2022-10-17T15:32:39.672Z,49.70
2022-10-17T15:36:48.813Z,51.30
2022-10-17T15:40:30.955Z,51.70
2022-10-17T15:44:12.760Z,51.30
2022-10-17T15:47:57.665Z,52.00
2022-10-17T15:51:39.796Z,52.90
2022-10-17T15:55:21.861Z,52.30
2022-10-17T15:59:12.513Z,52.60
2022-10-17T16:02:54.303Z,53.80
2022-10-17T16:06:36.144Z,54.40
2022-10-17T16:10:18.933Z,54.00
2022-10-17T16:14:02.994Z,54.00
2022-10-17T16:17:44.878Z,53.90
2022-10-17T16:21:32.757Z,55.10
2022-10-17T16:25:22.125Z,55.40
2022-10-17T16:29:04.921Z,55.50
2022-10-17T16:32:47.520Z,55.70
2022-10-17T16:36:29.539Z,56.30
2022-10-17T16:40:14.314Z,56.40
2022-10-17T16:43:58.427Z,56.70
2022-10-17T16:47:40.224Z,57.40
2022-10-17T16:51:22.396Z,57.40
2022-10-17T16:55:04.555Z,58.10
2022-10-17T16:58:47.042Z,58.50
2022-10-17T17:02:29.063Z,59.30
2022-10-17T17:06:16.257Z,60.00
2022-10-17T17:09:58.144Z,60.80
2022-10-17T17:13:41.161Z,61.40
2022-10-17T17:17:37.033Z,61.80
2022-10-17T17:21:24.955Z,62.00
2022-10-17T17:25:07.056Z,62.20
2022-10-17T17:28:50.211Z,62.70
2022-10-17T17:32:32.749Z,63.40
2022-10-17T17:36:18.465Z,64.00
2022-10-17T17:40:00.273Z,64.40
2022-10-17T17:43:43.475Z,64.50
2022-10-17T17:47:29.096Z,64.90
2022-10-17T17:51:13.148Z,64.80
2022-10-17T17:54:55.263Z,65.50
2022-10-17T17:58:37.439Z,65.70
2022-10-17T18:02:22.394Z,66.00
2022-10-17T18:06:06.637Z,66.40
2022-10-17T18:09:49.244Z,66.60
2022-10-17T18:13:31.118Z,66.70
2022-10-17T18:17:13.584Z,66.90
2022-10-17T18:20:56.219Z,66.90
2022-10-17T18:24:38.040Z,67.50
2022-10-17T18:28:19.943Z,67.90
2022-10-17T18:32:01.886Z,67.90
2022-10-17T18:35:43.729Z,68.10
2022-10-17T18:39:25.804Z,68.10
2022-10-17T18:43:07.663Z,68.60
2022-10-17T18:46:52.907Z,69.00
2022-10-17T18:50:34.861Z,69.00
2022-10-17T18:54:20.659Z,69.20
2022-10-17T18:58:02.492Z,69.40
2022-10-17T19:01:44.588Z,69.70
2022-10-17T19:05:26.500Z,69.60
2022-10-17T19:09:10.598Z,70.30
2022-10-17T19:12:53.275Z,70.40
2022-10-17T19:16:36.769Z,70.10
2022-10-17T19:20:18.788Z,70.00
2022-10-17T19:24:03.455Z,70.20
2022-10-17T19:27:59.229Z,70.60
2022-10-17T19:31:41.268Z,71.30
2022-10-17T19:35:23.165Z,71.80
2022-10-17T19:39:08.558Z,71.70
2022-10-17T19:42:59.150Z,71.60
2022-10-17T19:46:41.628Z,71.70
2022-10-17T19:50:23.638Z,72.20
2022-10-17T19:54:22.019Z,71.90
2022-10-17T19:58:06.860Z,72.00
2022-10-17T20:01:48.881Z,71.90
2022-10-17T20:05:30.928Z,71.90
2022-10-17T20:09:16.751Z,72.10
2022-10-17T20:12:59.366Z,72.20
2022-10-17T20:16:41.274Z,72.60
2022-10-17T20:20:23.559Z,72.40
2022-10-17T20:24:08.300Z,72.40
2022-10-17T20:27:50.214Z,72.80
2022-10-17T20:31:32.119Z,73.20
2022-10-17T20:35:14.011Z,73.40
2022-10-17T20:38:57.168Z,72.90
2022-10-17T20:42:39.140Z,73.30
2022-10-17T20:46:35.945Z,73.20
2022-10-17T20:50:19.295Z,73.30
2022-10-17T20:54:02.515Z,73.40
2022-10-17T20:57:44.665Z,74.10
2022-10-17T21:01:27.695Z,73.90
2022-10-17T21:05:09.654Z,73.90
2022-10-17T21:08:54.487Z,73.80
2022-10-17T21:12:53.118Z,73.40
2022-10-17T21:16:37.535Z,74.10
2022-10-17T21:20:21.095Z,74.50
2022-10-17T21:24:06.226Z,74.40
2022-10-17T21:27:48.058Z,74.30
2022-10-17T21:31:30.453Z,74.30
2022-10-17T21:35:13.193Z,74.30
2022-10-17T21:38:56.684Z,74.30
2022-10-17T21:42:38.625Z,74.30
2022-10-17T21:46:22.054Z,74.30
2022-10-17T21:50:04.082Z,74.50
2022-10-17T21:53:46.087Z,74.50
2022-10-17T21:57:27.908Z,74.90
2022-10-17T22:01:11.875Z,75.20
2022-10-17T22:04:53.699Z,75.70
2022-10-17T22:08:36.536Z,76.00
2022-10-17T22:12:18.796Z,75.70
2022-10-17T22:16:02.066Z,75.70
2022-10-17T22:19:43.862Z,75.90
2022-10-17T22:23:26.114Z,76.00
2022-10-17T22:27:10.336Z,75.80
2022-10-17T22:30:52.461Z,75.50
2022-10-17T22:34:34.410Z,75.60
2022-10-17T22:38:16.477Z,75.90
2022-10-17T22:41:58.326Z,76.10
2022-10-17T22:45:40.450Z,76.80
2022-10-17T22:49:22.242Z,76.00
2022-10-17T22:53:04.059Z,76.20
2022-10-17T22:56:45.851Z,76.40
2022-10-17T23:04:10.386Z,76.30
2022-10-17T23:07:52.206Z,76.30
2022-10-17T23:11:34.064Z,76.30
2022-10-17T23:15:16.004Z,76.10
2022-10-17T23:18:58.007Z,76.60
2022-10-17T23:22:39.800Z,76.70
2022-10-17T23:26:21.662Z,76.90
2022-10-17T23:30:05.021Z,77.10
2022-10-17T23:33:48.983Z,77.40
2022-10-17T23:37:31.333Z,78.10
2022-10-17T23:41:13.805Z,78.60
2022-10-17T23:44:55.772Z,78.90
2022-10-17T23:48:38.638Z,78.60
2022-10-17T23:52:20.727Z,78.30
2022-10-17T23:56:02.662Z,78.30
2022-10-17T23:59:44.499Z,78.30
